Time;durP1;ratioP1;P1;durP2;ratioP2;P2;SDS_P1;SDS_P2;PMS_P1;PMS_P2;Temp;Humidity;BMP_temperature;BMP_pressure;BME280_temperature;BME280_humidity;BME280_pressure;Samples;Min_cycle;Max_cycle;Signal;HPM_P1;HPM_P2
2022/09/20 00:01:23;;;;;;;;;1.67;1.67;;;;;15.64;46.83;101608.28;4996736;28;45458;-66
2022/09/20 00:03:54;;;;;;;;;1.33;1.33;;;;;15.67;47.34;101609.97;4997143;28;45479;-67
2022/09/20 00:06:22;;;;;;;;;2.67;2.00;;;;;15.66;46.79;101601.16;4996751;28;45475;-67
2022/09/20 00:08:48;;;;;;;;;2.33;1.33;;;;;15.68;47.35;101601.94;5001278;28;45474;-66
2022/09/20 00:11:24;;;;;;;;;6.33;3.00;;;;;15.66;46.53;101602.91;5013832;28;45491;-68
2022/09/20 00:13:51;;;;;;;;;2.67;1.67;;;;;15.68;47.28;101607.25;4996646;28;45520;-66
2022/09/20 00:16:21;;;;;;;;;0.67;0.67;;;;;15.64;47.96;101596.81;4996674;28;45526;-68
2022/09/20 00:18:50;;;;;;;;;3.33;1.67;;;;;15.61;46.62;101600.47;4996756;28;45490;-68
2022/09/20 00:21:22;;;;;;;;;2.33;2.33;;;;;15.52;47.75;101587.56;4996556;28;45487;-68
2022/09/20 00:23:47;;;;;;;;;2.67;2.67;;;;;15.60;46.86;101604.03;4995297;28;45362;-68
2022/09/20 00:26:13;;;;;;;;;1.67;1.00;;;;;15.60;46.62;101604.03;4996421;28;45537;-66
2022/09/20 00:28:39;;;;;;;;;2.00;2.00;;;;;15.57;47.28;101598.00;5012091;28;45431;-65
2022/09/20 00:31:06;;;;;;;;;2.00;1.67;;;;;15.54;46.99;101601.63;5016407;28;45544;-66
2022/09/20 00:36:26;;;;;;;;;3.33;2.00;;;;;15.55;47.23;101595.38;5015221;28;45440;-67
2022/09/20 00:38:58;;;;;;;;;2.67;2.00;;;;;15.50;46.77;101592.09;4998876;28;46093;-67
2022/09/20 00:41:25;;;;;;;;;3.33;3.00;;;;;15.53;47.07;101597.25;4996241;28;45424;-65
2022/09/20 00:43:51;;;;;;;;;2.00;2.00;;;;;15.47;47.20;101597.47;4996434;28;45527;-68
2022/09/20 00:46:37;;;;;;;;;3.33;3.33;;;;;15.44;47.79;101590.50;4996463;28;45447;-67
2022/09/20 00:49:17;;;;;;;;;2.00;2.00;;;;;15.46;46.99;101593.13;5014060;28;45894;-67
2022/09/20 00:51:51;;;;;;;;;0.67;0.67;;;;;15.44;47.03;101592.31;5016003;28;45464;-65
2022/09/20 00:54:19;;;;;;;;;4.33;2.00;;;;;15.42;47.50;101589.72;5016062;28;45502;-68
2022/09/20 00:56:44;;;;;;;;;2.00;2.00;;;;;15.40;47.53;101585.41;5016024;28;45483;-66
2022/09/20 00:59:18;;;;;;;;;2.00;2.00;;;;;15.34;47.70;101589.16;4996282;28;46587;-66
2022/09/20 01:01:47;;;;;;;;;2.67;2.67;;;;;15.28;47.66;101576.13;4995976;28;45504;-67
2022/09/20 01:04:15;;;;;;;;;3.33;2.00;;;;;15.24;47.46;101582.50;4995942;28;45437;-67
2022/09/20 01:06:43;;;;;;;;;2.33;2.33;;;;;15.31;48.28;101588.41;4995864;28;45511;-65
2022/09/20 01:09:09;;;;;;;;;3.00;3.00;;;;;15.30;47.76;101595.50;5013721;28;45545;-68
2022/09/20 01:11:36;;;;;;;;;3.67;2.00;;;;;15.31;47.43;101591.91;4996436;28;45415;-68
2022/09/20 01:14:01;;;;;;;;;2.33;2.33;;;;;15.29;48.11;101593.78;4994240;28;45396;-68
2022/09/20 01:16:29;;;;;;;;;4.67;3.00;;;;;15.26;47.61;101583.31;4995712;28;45489;-66
2022/09/20 01:18:59;;;;;;;;;2.00;2.00;;;;;15.27;47.61;101592.13;4995485;28;45456;-65
2022/09/20 01:21:26;;;;;;;;;2.00;2.00;;;;;15.15;47.99;101569.59;5010499;28;46080;-66
2022/09/20 01:24:47;;;;;;;;;2.00;2.00;;;;;15.27;47.72;101581.50;5015438;28;45454;-67
2022/09/20 01:27:38;;;;;;;;;4.33;2.00;;;;;15.24;48.04;101579.84;4991592;28;45555;-67
2022/09/20 01:30:13;;;;;;;;;2.00;2.00;;;;;15.23;48.65;101580.75;4985854;28;45574;-68
2022/09/20 01:33:06;;;;;;;;;2.67;2.67;;;;;15.21;48.70;101577.31;4995667;28;45510;-67
2022/09/20 01:35:34;;;;;;;;;2.00;2.00;;;;;15.18;47.87;101574.78;4995636;28;45564;-69
2022/09/20 01:38:31;;;;;;;;;3.00;3.00;;;;;15.21;48.64;101580.81;4995280;28;45494;-66
2022/09/20 01:41:11;;;;;;;;;2.00;2.00;;;;;15.23;48.84;101580.75;4995673;28;47357;-66
2022/09/20 01:43:46;;;;;;;;;2.00;2.00;;;;;15.20;48.69;101578.22;4995520;28;45414;-67
2022/09/20 01:46:31;;;;;;;;;2.33;2.33;;;;;15.19;48.60;101574.72;4995398;28;45484;-66
2022/09/20 01:49:33;;;;;;;;;2.00;2.00;;;;;15.21;49.35;101572.88;4995498;28;45686;-66
2022/09/20 01:51:58;;;;;;;;;2.00;2.00;;;;;15.22;48.83;101577.25;4995161;28;45506;-68
2022/09/20 01:54:51;;;;;;;;;4.00;3.00;;;;;15.17;48.97;101573.06;4995273;28;45400;-66
2022/09/20 01:57:34;;;;;;;;;2.33;2.33;;;;;15.16;48.83;101574.84;4976103;28;45417;-66
2022/09/20 02:00:11;;;;;;;;;2.33;2.33;;;;;15.16;48.74;101569.53;5004553;28;45502;-67
2022/09/20 02:02:42;;;;;;;;;3.00;3.00;;;;;15.17;48.38;101568.59;5014793;28;45526;-67
2022/09/20 02:05:08;;;;;;;;;3.00;3.00;;;;;15.18;48.60;101562.41;5014968;28;45363;-68
2022/09/20 02:07:46;;;;;;;;;4.67;4.67;;;;;15.16;49.70;101566.91;5015667;28;45454;-68
2022/09/20 02:10:56;;;;;;;;;3.67;3.67;;;;;15.13;48.50;101558.22;5014202;28;45663;-68
2022/09/20 02:13:31;;;;;;;;;3.00;3.00;;;;;15.11;48.80;101554.75;5014693;28;45469;-65
2022/09/20 02:16:21;;;;;;;;;3.00;3.00;;;;;15.12;50.00;101559.13;5014853;28;45541;-67
2022/09/20 02:19:06;;;;;;;;;2.00;2.00;;;;;15.08;49.97;101552.22;5013115;28;45580;-68
2022/09/20 02:21:38;;;;;;;;;3.00;3.00;;;;;15.08;49.18;101552.22;5014872;28;45544;-67
2022/09/20 02:24:38;;;;;;;;;2.67;2.33;;;;;15.10;49.42;101555.66;5014695;28;46110;-67
2022/09/20 02:27:22;;;;;;;;;5.67;3.00;;;;;15.08;49.27;101563.69;5014312;28;45503;-68
2022/09/20 02:30:08;;;;;;;;;7.00;5.00;;;;;15.00;49.70;101565.75;5006985;28;45548;-69
2022/09/20 02:32:48;;;;;;;;;5.00;3.33;;;;;14.99;49.34;101564.00;4994775;28;45475;-68
2022/09/20 02:35:25;;;;;;;;;6.00;3.00;;;;;14.99;49.19;101569.31;4994632;28;45430;-69
2022/09/20 02:38:12;;;;;;;;;2.00;2.00;;;;;14.94;49.39;101561.56;4996820;28;45503;-68
2022/09/20 02:41:04;;;;;;;;;4.67;4.67;;;;;14.77;50.40;101578.06;5013447;28;45450;-68
2022/09/20 02:43:55;;;;;;;;;3.33;3.00;;;;;14.71;50.43;101578.31;4976940;28;45486;-69
2022/09/20 02:46:43;;;;;;;;;3.67;2.67;;;;;14.74;50.46;101577.31;5028094;28;46316;-66
2022/09/20 02:49:16;;;;;;;;;3.00;3.00;;;;;14.72;50.56;101576.50;5014596;28;45598;-68
2022/09/20 02:51:58;;;;;;;;;3.00;3.00;;;;;14.63;50.53;101574.22;4998030;28;46102;-67
2022/09/20 02:54:52;;;;;;;;;4.67;3.00;;;;;14.67;50.67;101574.06;4997853;28;45523;-67
2022/09/20 02:57:53;;;;;;;;;3.33;2.67;;;;;14.69;49.90;101580.13;4997665;28;46365;-66
2022/09/20 03:00:24;;;;;;;;;4.00;4.00;;;;;14.64;50.23;101565.34;4999928;28;45569;-67
2022/09/20 03:03:22;;;;;;;;;3.00;3.00;;;;;14.73;49.73;101580.91;5017585;28;45551;-68
2022/09/20 03:06:15;;;;;;;;;3.00;3.00;;;;;14.74;50.30;101580.84;5017611;28;45440;-69
2022/09/20 03:08:59;;;;;;;;;3.00;3.00;;;;;14.66;50.25;101572.31;5017505;28;46051;-69
2022/09/20 03:11:51;;;;;;;;;4.33;4.00;;;;;14.64;50.09;101574.19;4997737;28;45448;-68
2022/09/20 03:14:27;;;;;;;;;4.00;3.00;;;;;14.64;50.56;101570.63;4997779;28;45474;-69
2022/09/20 03:17:26;;;;;;;;;2.33;2.33;;;;;14.68;49.91;101574.91;4997780;28;45483;-67
2022/09/20 03:20:10;;;;;;;;;6.33;3.67;;;;;14.71;50.23;101577.44;4997569;28;46344;-66
2022/09/20 03:22:54;;;;;;;;;4.00;4.00;;;;;14.69;50.50;101585.44;4997463;28;45619;-67
2022/09/20 03:25:34;;;;;;;;;3.33;3.33;;;;;14.70;50.35;101584.53;4997740;28;45487;-69
2022/09/20 03:28:18;;;;;;;;;3.67;3.67;;;;;14.66;50.84;101574.97;4997869;28;45483;-67
2022/09/20 03:31:06;;;;;;;;;6.00;4.00;;;;;14.67;50.78;101584.66;5013055;28;46166;-69
2022/09/20 03:33:37;;;;;;;;;8.00;6.33;;;;;14.68;50.26;101581.06;5017126;28;45529;-67
2022/09/20 03:36:28;;;;;;;;;2.67;2.67;;;;;14.67;50.65;101579.34;5017303;28;45493;-69
2022/09/20 03:39:15;;;;;;;;;6.00;6.00;;;;;14.67;50.03;101578.47;5014543;28;45388;-66
2022/09/20 03:41:41;;;;;;;;;2.00;2.00;;;;;14.66;50.76;101579.41;4996946;28;45341;-65
2022/09/20 03:44:07;;;;;;;;;5.00;5.00;;;;;14.65;49.92;101582.97;4997113;28;45475;-66
2022/09/20 03:46:46;;;;;;;;;5.67;5.00;;;;;14.63;50.34;101572.44;4997438;28;45437;-68
2022/09/20 03:49:30;;;;;;;;;5.33;5.00;;;;;14.58;50.48;101564.66;4999104;28;45440;-69
2022/09/20 03:52:17;;;;;;;;;6.33;5.67;;;;;14.61;50.76;101581.34;5016364;28;46238;-69
2022/09/20 03:54:57;;;;;;;;;4.00;4.00;;;;;14.50;50.98;101584.34;5016686;28;45446;-67
2022/09/20 03:57:39;;;;;;;;;3.00;3.00;;;;;14.51;50.24;101581.66;5016599;28;45459;-65
2022/09/20 04:00:37;;;;;;;;;4.00;4.00;;;;;14.51;50.77;101576.38;5015911;28;45414;-67
2022/09/20 04:04:02;;;;;;;;;5.00;5.00;;;;;14.52;50.52;101574.56;5016374;28;46091;-69
2022/09/20 04:06:42;;;;;;;;;4.33;4.33;;;;;14.50;50.91;101571.97;4994258;28;46284;-66
2022/09/20 04:09:33;;;;;;;;;4.00;4.00;;;;;14.47;50.83;101571.22;5031685;28;45521;-66
2022/09/20 04:12:41;;;;;;;;;7.33;6.00;;;;;14.48;50.86;101567.66;5016376;28;45511;-69
2022/09/20 04:15:42;;;;;;;;;5.00;5.00;;;;;14.46;51.02;101572.16;5016358;28;46243;-68
2022/09/20 04:18:29;;;;;;;;;6.33;5.33;;;;;14.45;51.23;101586.28;5014530;28;45608;-65
2022/09/20 04:21:05;;;;;;;;;12.00;8.67;;;;;14.51;51.19;101586.09;5001741;28;45454;-68
2022/09/20 04:23:39;;;;;;;;;4.67;4.67;;;;;14.53;51.29;101584.25;4996375;28;45664;-66
2022/09/20 04:26:05;;;;;;;;;3.00;3.00;;;;;14.51;50.83;101588.75;4996575;28;45509;-67
2022/09/20 04:28:47;;;;;;;;;6.33;6.33;;;;;14.55;51.31;101585.06;4996533;28;45444;-66
2022/09/20 04:31:34;;;;;;;;;6.67;6.67;;;;;14.56;50.80;101582.38;5012096;28;45609;-69
2022/09/20 04:34:03;;;;;;;;;5.67;5.33;;;;;14.55;50.77;101583.28;5016215;28;45478;-67
2022/09/20 04:36:58;;;;;;;;;10.67;10.33;;;;;14.51;51.33;101588.75;5016060;28;46137;-69
2022/09/20 04:39:44;;;;;;;;;5.33;5.33;;;;;14.46;51.84;101577.44;5007035;28;45434;-69
2022/09/20 04:42:51;;;;;;;;;6.33;3.00;;;;;14.55;51.45;101587.72;5016235;28;45482;-68
2022/09/20 04:45:50;;;;;;;;;5.67;4.67;;;;;14.58;50.80;101593.75;4935265;28;45502;-66
2022/09/20 04:48:41;;;;;;;;;6.33;5.00;;;;;14.52;51.03;101596.63;4934682;28;45439;-66
2022/09/20 04:51:21;;;;;;;;;4.00;4.00;;;;;14.56;51.29;101590.34;4987294;28;45463;-69
2022/09/20 04:53:56;;;;;;;;;4.33;4.33;;;;;14.57;50.92;101591.19;4996376;28;45416;-66
2022/09/20 04:56:40;;;;;;;;;9.33;8.67;;;;;14.57;51.54;101600.00;4996177;28;45570;-67
2022/09/20 04:59:18;;;;;;;;;8.67;5.67;;;;;14.56;52.02;101597.38;4996280;28;45456;-67
2022/09/20 05:01:54;;;;;;;;;7.00;7.00;;;;;14.52;51.84;101604.59;5012283;28;45794;-65
2022/09/20 05:05:05;;;;;;;;;5.00;5.00;;;;;14.52;51.34;101603.69;5015864;28;45489;-66
2022/09/20 05:07:54;;;;;;;;;6.00;6.00;;;;;14.50;51.53;101613.47;5012989;28;45619;-70
2022/09/20 05:10:48;;;;;;;;;5.00;5.00;;;;;14.49;51.83;101612.59;5015390;28;46050;-68
2022/09/20 05:13:36;;;;;;;;;3.00;3.00;;;;;14.48;51.44;101607.34;5015588;28;45460;-65
2022/09/20 05:16:07;;;;;;;;;6.67;6.67;;;;;14.41;51.45;101613.81;5015561;28;45400;-68
2022/09/20 05:18:53;;;;;;;;;4.33;4.33;;;;;14.45;51.61;101612.75;5012246;28;45443;-69
2022/09/20 05:21:38;;;;;;;;;7.67;7.67;;;;;14.44;51.00;101611.03;5015053;28;46029;-67
2022/09/20 05:24:25;;;;;;;;;7.33;5.00;;;;;14.42;51.89;101607.56;5015351;28;45476;-68
2022/09/20 05:27:05;;;;;;;;;8.00;5.33;;;;;14.40;51.98;101602.34;5015369;28;45581;-67
2022/09/20 05:29:41;;;;;;;;;4.00;4.00;;;;;14.36;52.15;101608.66;5001807;28;45522;-69
2022/09/20 05:32:32;;;;;;;;;8.00;5.00;;;;;14.34;51.87;101602.53;5015027;28;45561;-69
2022/09/20 05:35:12;;;;;;;;;7.67;6.67;;;;;14.35;51.67;101606.94;5002913;28;45503;-66
2022/09/20 05:38:02;;;;;;;;;9.67;8.33;;;;;14.40;52.57;101609.41;4993811;28;45447;-68
2022/09/20 05:40:41;;;;;;;;;7.00;7.00;;;;;14.40;51.91;101604.13;4995193;28;45408;-70
2022/09/20 05:43:26;;;;;;;;;4.00;4.00;;;;;14.39;52.19;101608.53;4995004;28;46179;-68
2022/09/20 05:46:20;;;;;;;;;5.00;5.00;;;;;14.42;51.86;101599.63;4993838;28;46157;-69
2022/09/20 05:48:59;;;;;;;;;5.00;5.00;;;;;14.47;52.12;101609.13;4995401;28;45529;-68
2022/09/20 05:52:02;;;;;;;;;7.67;6.00;;;;;14.53;51.79;101613.38;4995391;28;45614;-66
2022/09/20 05:55:06;;;;;;;;;5.33;3.00;;;;;14.59;51.20;101623.78;4995306;28;45739;-68
2022/09/20 05:58:00;;;;;;;;;8.00;8.00;;;;;14.60;51.58;101625.50;5012974;28;45494;-66
2022/09/20 06:00:34;;;;;;;;;6.33;5.67;;;;;14.59;52.05;101623.78;5014451;28;45556;-67
2022/09/20 06:03:17;;;;;;;;;7.00;5.33;;;;;14.66;51.32;101621.75;5013682;28;45566;-67
2022/09/20 06:06:06;;;;;;;;;7.67;7.67;;;;;14.68;51.56;101625.22;5009097;28;45495;-66
2022/09/20 06:09:02;;;;;;;;;7.00;7.00;;;;;14.59;51.16;101621.13;5014835;28;45534;-66
2022/09/20 06:12:05;;;;;;;;;6.00;4.33;;;;;14.69;51.67;101634.88;4999454;28;45420;-67
2022/09/20 06:14:58;;;;;;;;;7.00;7.00;;;;;14.69;51.95;101638.38;4998217;28;45428;-66
2022/09/20 06:17:32;;;;;;;;;5.33;5.33;;;;;14.75;51.74;101638.19;4998060;28;45522;-66
2022/09/20 06:20:32;;;;;;;;;6.00;6.00;;;;;14.74;51.37;101643.53;4997921;28;45478;-64
2022/09/20 06:23:02;;;;;;;;;11.67;9.33;;;;;14.77;51.43;101651.34;4998283;28;45444;-67
2022/09/20 06:25:42;;;;;;;;;8.00;8.00;;;;;14.79;51.50;101653.03;4997875;28;45531;-67
2022/09/20 06:28:17;;;;;;;;;8.00;8.00;;;;;14.82;51.86;101652.06;4996318;28;47582;-67
2022/09/20 06:30:54;;;;;;;;;7.67;7.33;;;;;14.90;51.95;101649.13;4997828;28;45587;-66
2022/09/20 06:33:24;;;;;;;;;8.67;8.67;;;;;14.89;52.22;101645.63;4997786;28;45449;-67
2022/09/20 06:41:51;;;;;;;;;8.67;8.00;;;;;14.97;52.14;101627.66;4997572;28;45463;-67
2022/09/20 06:44:16;;;;;;;;;2.67;2.67;;;;;15.01;51.32;101644.31;4997212;28;45476;-67
2022/09/20 06:46:41;;;;;;;;;7.67;6.33;;;;;15.02;51.53;101646.91;4997542;28;45419;-67
2022/09/20 06:49:08;;;;;;;;;8.00;8.00;;;;;15.06;51.31;101652.94;4997395;28;45455;-67
2022/09/20 06:51:36;;;;;;;;;7.00;7.00;;;;;15.07;51.50;101660.00;4997461;28;45531;-67
2022/09/20 06:54:04;;;;;;;;;6.67;6.33;;;;;15.06;50.88;101652.94;4997534;28;45584;-66
2022/09/20 06:56:35;;;;;;;;;7.00;6.00;;;;;15.08;51.62;101656.41;4997104;28;45593;-67
2022/09/20 06:59:07;;;;;;;;;8.00;7.00;;;;;15.01;51.24;101655.75;4996873;28;45914;-67
2022/09/20 07:01:32;;;;;;;;;9.67;6.33;;;;;14.98;51.25;101655.88;4996951;28;45424;-66
2022/09/20 07:03:58;;;;;;;;;9.67;9.67;;;;;15.00;51.50;101661.13;4997345;28;45463;-66
2022/09/20 07:06:23;;;;;;;;;7.67;7.67;;;;;15.06;51.57;101649.44;4997212;28;45451;-68
2022/09/20 07:08:48;;;;;;;;;12.00;10.33;;;;;15.01;51.07;101636.34;4997517;28;45981;-65
2022/09/20 07:11:16;;;;;;;;;11.00;9.00;;;;;15.16;51.23;101661.44;4996799;28;45478;-66
2022/09/20 07:13:43;;;;;;;;;9.33;7.67;;;;;15.04;51.42;101657.44;4997013;28;45510;-67
2022/09/20 07:16:13;;;;;;;;;8.00;8.00;;;;;15.05;51.19;101656.53;4997010;28;45579;-66
2022/09/20 07:18:40;;;;;;;;;8.67;8.67;;;;;14.96;51.25;101668.34;4996588;28;46198;-66
2022/09/20 07:21:07;;;;;;;;;7.67;7.00;;;;;14.98;51.31;101669.13;4996524;28;45469;-67
2022/09/20 07:23:32;;;;;;;;;9.00;9.00;;;;;14.91;50.86;101669.41;4994708;28;45551;-66
2022/09/20 07:25:59;;;;;;;;;10.67;10.00;;;;;14.81;51.79;101663.59;4996717;28;45640;-66
2022/09/20 07:28:27;;;;;;;;;11.00;10.00;;;;;14.77;51.63;101665.47;4996561;28;45515;-67
2022/09/20 07:30:53;;;;;;;;;9.00;8.00;;;;;14.73;51.76;101666.50;4996668;28;45416;-68
2022/09/20 07:33:20;;;;;;;;;8.33;8.33;;;;;14.62;52.15;101668.66;4995411;28;45453;-68
2022/09/20 07:35:47;;;;;;;;;8.33;8.33;;;;;14.68;52.18;101675.53;4996625;28;45468;-69
2022/09/20 07:38:14;;;;;;;;;8.00;7.67;;;;;14.68;51.74;101686.97;4996788;28;45496;-67
2022/09/20 07:40:39;;;;;;;;;7.00;7.00;;;;;14.62;51.95;101686.34;4996516;28;45495;-67
2022/09/20 07:43:05;;;;;;;;;11.67;10.33;;;;;14.60;52.23;101688.19;4996542;28;45461;-66
2022/09/20 07:45:30;;;;;;;;;9.00;8.67;;;;;14.60;51.62;101686.38;4996599;28;45412;-67
2022/09/20 07:47:58;;;;;;;;;8.00;7.67;;;;;14.60;52.53;101698.75;4996289;28;46147;-67
2022/09/20 07:50:23;;;;;;;;;9.33;9.33;;;;;14.53;52.98;101691.03;4996404;28;45503;-67
2022/09/20 07:52:49;;;;;;;;;10.00;8.67;;;;;14.42;52.22;101690.47;4996385;28;45510;-67
2022/09/20 07:55:14;;;;;;;;;8.33;8.33;;;;;14.40;53.05;101695.00;4996486;28;45419;-67
2022/09/20 07:57:40;;;;;;;;;12.00;10.67;;;;;14.47;53.10;101706.22;4995619;28;45447;-67
2022/09/20 08:00:07;;;;;;;;;9.00;8.00;;;;;14.41;53.09;101709.94;4996204;28;45367;-67
2022/09/20 08:02:33;;;;;;;;;10.00;9.00;;;;;14.43;52.50;101692.25;4996427;28;45488;-67
2022/09/20 08:04:58;;;;;;;;;7.00;7.00;;;;;14.55;52.49;101707.72;4996253;28;45395;-67
2022/09/20 08:07:23;;;;;;;;;8.33;8.00;;;;;14.55;52.68;101702.41;4996009;28;45945;-67
2022/09/20 08:09:49;;;;;;;;;9.33;9.33;;;;;14.50;52.66;101708.75;4996565;28;45448;-67
2022/09/20 08:12:14;;;;;;;;;8.00;8.00;;;;;14.68;51.96;101715.25;4996303;28;45407;-67
2022/09/20 08:14:40;;;;;;;;;9.00;8.00;;;;;14.77;51.43;101715.78;4996064;28;45553;-66
2022/09/20 08:17:05;;;;;;;;;11.00;10.00;;;;;14.82;51.48;101717.41;4996009;28;45513;-66
2022/09/20 08:19:30;;;;;;;;;8.67;7.67;;;;;14.85;51.34;101717.31;4995688;28;45452;-66
2022/09/20 08:21:56;;;;;;;;;13.00;10.67;;;;;14.90;52.05;101721.50;4996013;28;45483;-69
2022/09/20 08:24:22;;;;;;;;;8.33;6.67;;;;;14.92;51.89;101716.19;4995826;28;45659;-67
2022/09/20 08:26:47;;;;;;;;;10.33;9.67;;;;;14.91;51.56;101719.72;4995781;28;46249;-68
2022/09/20 08:29:14;;;;;;;;;9.00;7.33;;;;;14.94;51.72;101714.34;4995766;28;45463;-67
2022/09/20 08:31:41;;;;;;;;;7.67;7.00;;;;;15.02;51.69;101717.59;4995778;28;45446;-67
2022/09/20 08:34:08;;;;;;;;;10.67;8.00;;;;;15.03;51.52;101722.81;4995876;28;45383;-66
2022/09/20 08:36:36;;;;;;;;;10.00;8.00;;;;;15.10;51.41;101728.78;4993952;28;46459;-67
2022/09/20 08:39:01;;;;;;;;;6.00;6.00;;;;;15.17;50.96;101730.25;4994027;28;45953;-68
2022/09/20 08:41:35;;;;;;;;;9.67;9.00;;;;;15.23;51.64;101737.13;4995668;28;45544;-67
2022/09/20 08:44:11;;;;;;;;;8.33;6.33;;;;;15.25;50.87;101728.19;4994269;28;45536;-68
2022/09/20 08:46:44;;;;;;;;;11.00;9.00;;;;;15.27;50.84;101733.44;4995440;28;45590;-67
2022/09/20 08:49:17;;;;;;;;;6.33;6.33;;;;;15.29;51.12;101731.63;4995211;28;45509;-67
2022/09/20 08:51:47;;;;;;;;;6.67;5.00;;;;;15.36;51.04;101742.84;4995441;28;45468;-68
2022/09/20 08:54:15;;;;;;;;;9.33;8.00;;;;;15.37;51.01;101739.28;4995455;28;45513;-66
2022/09/20 08:56:43;;;;;;;;;8.33;7.00;;;;;15.39;51.08;101748.91;4995043;28;46233;-67
2022/09/20 08:59:14;;;;;;;;;12.00;8.33;;;;;15.43;51.30;101745.22;4994971;28;45548;-67
2022/09/20 09:01:40;;;;;;;;;7.00;7.00;;;;;15.46;51.22;101745.09;4995050;28;45485;-68
2022/09/20 09:04:23;;;;;;;;;8.00;8.00;;;;;15.53;51.71;101751.03;4995222;28;45381;-67
2022/09/20 09:06:51;;;;;;;;;12.00;9.67;;;;;15.59;51.60;101750.81;4993846;28;47185;-68
2022/09/20 09:09:23;;;;;;;;;7.33;7.33;;;;;15.67;50.37;101743.41;4995396;28;45509;-66
2022/09/20 09:11:50;;;;;;;;;8.67;8.67;;;;;15.75;50.24;101742.31;4995286;28;45467;-67
2022/09/20 09:14:51;;;;;;;;;8.00;5.00;;;;;15.77;51.09;101748.38;4995040;28;45413;-67
2022/09/20 09:17:18;;;;;;;;;7.00;6.00;;;;;15.85;50.70;101746.31;4994906;28;45522;-68
2022/09/20 09:19:45;;;;;;;;;7.00;6.00;;;;;15.88;50.07;101748.88;4994985;28;45543;-67
2022/09/20 09:22:18;;;;;;;;;4.67;4.67;;;;;15.87;49.80;101750.63;4995150;28;45519;-67
2022/09/20 09:24:43;;;;;;;;;7.33;6.00;;;;;15.83;50.64;101737.56;4995050;28;45526;-68
2022/09/20 09:27:16;;;;;;;;;7.00;7.00;;;;;15.93;49.82;101744.22;4994916;28;45958;-69
2022/09/20 09:29:49;;;;;;;;;7.00;6.00;;;;;15.95;49.77;101752.13;4994966;28;45599;-68
2022/09/20 09:32:26;;;;;;;;;8.67;7.00;;;;;15.99;49.75;101738.69;4994844;28;45426;-67
2022/09/20 09:34:51;;;;;;;;;6.00;6.00;;;;;16.02;49.84;101746.50;4995413;28;45570;-67
2022/09/20 09:37:30;;;;;;;;;8.33;7.67;;;;;16.03;50.32;101740.28;4992738;28;48077;-68
2022/09/20 09:40:08;;;;;;;;;6.00;6.00;;;;;16.09;49.31;101747.13;4994734;28;45498;-67
2022/09/20 09:42:33;;;;;;;;;6.00;5.00;;;;;16.07;50.23;101730.41;4994903;28;45480;-67
2022/09/20 09:45:25;;;;;;;;;9.00;8.33;;;;;16.20;50.21;101744.03;4994439;28;45436;-68
2022/09/20 09:47:51;;;;;;;;;8.67;7.67;;;;;16.23;49.85;101744.81;4994657;28;45444;-68
2022/09/20 09:50:26;;;;;;;;;10.33;9.67;;;;;16.23;49.55;101747.44;4994542;28;45530;-67
2022/09/20 09:53:27;;;;;;;;;9.00;7.00;;;;;16.24;49.19;101737.69;4994533;28;45606;-68
2022/09/20 09:56:10;;;;;;;;;5.00;5.00;;;;;16.27;49.73;101741.06;4998212;28;45498;-69
2022/09/20 09:58:57;;;;;;;;;5.33;5.00;;;;;16.32;49.01;101743.56;4994527;28;45554;-69
2022/09/20 10:01:38;;;;;;;;;6.33;6.33;;;;;16.33;49.10;101732.88;4994508;28;45538;-67
2022/09/20 10:04:18;;;;;;;;;5.67;5.67;;;;;16.40;48.44;101737.94;5010907;28;45686;-74
2022/09/20 10:07:12;;;;;;;;;6.67;4.33;;;;;16.37;48.59;101733.59;5013471;28;45471;-65
2022/09/20 10:09:59;;;;;;;;;5.00;5.00;;;;;16.42;47.63;101736.94;5012825;28;45568;-63
2022/09/20 10:12:34;;;;;;;;;10.67;7.67;;;;;16.40;48.49;101736.13;5010121;28;45638;-69
2022/09/20 10:15:25;;;;;;;;;11.67;11.67;;;;;16.40;48.79;101733.47;5002736;28;45385;-63
2022/09/20 10:18:12;;;;;;;;;7.00;7.00;;;;;16.47;48.52;101729.66;4998398;28;45546;-63
2022/09/20 10:20:52;;;;;;;;;8.00;8.00;;;;;16.48;47.84;101734.03;4993303;28;45473;-64
2022/09/20 10:23:36;;;;;;;;;6.00;5.67;;;;;16.52;47.92;101734.75;4993997;28;45528;-65
2022/09/20 10:26:26;;;;;;;;;6.00;6.00;;;;;16.59;47.27;101738.03;4994103;28;45450;-63
2022/09/20 10:29:07;;;;;;;;;9.00;6.00;;;;;16.65;46.76;101738.59;4993827;28;45447;-70
2022/09/20 10:31:44;;;;;;;;;6.33;3.67;;;;;16.69;46.00;101726.94;4994222;28;45491;-69
2022/09/20 10:34:45;;;;;;;;;8.00;5.00;;;;;16.75;46.59;101729.31;4992354;28;45523;-69
2022/09/20 10:37:24;;;;;;;;;9.33;6.00;;;;;16.68;46.30;101708.41;4993776;28;45507;-73
2022/09/20 10:40:17;;;;;;;;;5.33;5.33;;;;;16.66;45.54;101704.97;5011300;28;45504;-76
2022/09/20 10:46:09;;;;;;;;;6.00;6.00;;;;;16.90;45.84;101734.94;4993462;28;45459;-76
2022/09/20 10:48:46;;;;;;;;;3.00;2.33;;;;;16.94;46.22;101729.41;4971800;28;45421;-75
2022/09/20 10:51:28;;;;;;;;;4.33;4.33;;;;;17.00;45.21;101733.59;4993799;28;45559;-69
2022/09/20 10:54:25;;;;;;;;;4.00;4.00;;;;;17.06;45.90;101727.16;5010372;28;46022;-69
2022/09/20 10:57:04;;;;;;;;;6.67;4.00;;;;;17.11;44.86;101725.16;4942071;28;45616;-68
2022/09/20 10:59:41;;;;;;;;;6.33;4.00;;;;;17.15;45.21;101721.44;5015917;28;45474;-69
2022/09/20 11:02:21;;;;;;;;;4.33;4.00;;;;;17.19;45.36;101725.66;5016908;28;45376;-60
2022/09/20 11:05:07;;;;;;;;;6.00;5.00;;;;;17.21;45.27;101727.31;5016271;28;46169;-61
2022/09/20 11:08:01;;;;;;;;;4.67;3.00;;;;;17.28;44.69;101729.72;5010676;28;45516;-60
2022/09/20 11:10:35;;;;;;;;;6.33;3.00;;;;;17.30;44.51;101726.06;4982199;28;45478;-59
2022/09/20 11:13:19;;;;;;;;;3.67;3.67;;;;;17.31;44.31;101724.28;5013545;28;45643;-60
2022/09/20 11:15:58;;;;;;;;;5.00;5.00;;;;;17.30;44.71;101726.06;5009138;28;47708;-60
2022/09/20 11:18:37;;;;;;;;;5.00;4.00;;;;;17.34;44.40;101722.31;5016093;28;45514;-60
2022/09/20 11:21:15;;;;;;;;;4.67;3.67;;;;;17.30;44.00;101719.88;5011610;28;45486;-60
2022/09/20 11:23:54;;;;;;;;;4.33;2.00;;;;;17.30;43.75;101720.75;5015993;28;45440;-64
2022/09/20 11:26:45;;;;;;;;;6.00;3.00;;;;;17.35;43.54;101718.72;5012764;28;46225;-65
2022/09/20 11:29:31;;;;;;;;;4.00;4.00;;;;;17.44;43.62;101720.97;4996856;28;45614;-65
2022/09/20 11:32:21;;;;;;;;;2.00;2.00;;;;;17.45;43.74;101709.38;5007097;28;45442;-65
2022/09/20 11:34:54;;;;;;;;;4.33;3.67;;;;;17.63;42.88;101722.78;5015454;28;45493;-64
2022/09/20 11:37:24;;;;;;;;;5.00;5.00;;;;;17.66;43.31;101717.31;5016534;28;46201;-65
2022/09/20 11:40:00;;;;;;;;;5.00;4.00;;;;;17.64;43.45;101724.50;5016704;28;45427;-65
2022/09/20 11:42:33;;;;;;;;;5.00;3.67;;;;;17.66;43.16;101722.63;5016838;28;45415;-65
2022/09/20 11:44:58;;;;;;;;;4.00;3.33;;;;;17.73;43.19;101723.19;5016587;28;45422;-65
2022/09/20 11:47:30;;;;;;;;;5.67;4.67;;;;;17.73;42.79;101708.13;5016289;28;45431;-65
2022/09/20 11:50:31;;;;;;;;;6.00;5.00;;;;;17.87;42.76;101715.47;5016433;28;45724;-65
2022/09/20 11:52:59;;;;;;;;;4.33;3.33;;;;;17.90;42.42;101712.66;5016593;28;45467;-65
2022/09/20 11:55:51;;;;;;;;;6.33;6.33;;;;;17.96;42.60;101708.84;5016204;28;45453;-65
2022/09/20 11:58:19;;;;;;;;;3.00;3.00;;;;;17.90;42.87;101707.34;5014694;28;46124;-65
2022/09/20 12:00:49;;;;;;;;;4.33;3.67;;;;;17.96;41.75;101714.16;5015569;28;45416;-65
2022/09/20 12:03:36;;;;;;;;;7.67;6.00;;;;;17.87;42.78;101712.81;5016739;28;45470;-62
2022/09/20 12:06:08;;;;;;;;;3.00;3.00;;;;;17.87;42.69;101712.81;5010648;28;45412;-61
2022/09/20 12:08:40;;;;;;;;;6.67;6.67;;;;;17.89;42.98;101713.56;5003667;28;46122;-61
2022/09/20 12:11:09;;;;;;;;;5.67;5.00;;;;;17.91;43.07;101716.16;5015211;28;45389;-61
2022/09/20 12:13:38;;;;;;;;;3.00;3.00;;;;;17.95;42.81;101707.13;5016076;28;45483;-63
2022/09/20 12:16:11;;;;;;;;;4.00;4.00;;;;;17.84;42.89;101702.31;5015669;28;45481;-61
2022/09/20 12:19:01;;;;;;;;;4.33;3.00;;;;;17.84;43.65;101705.84;5015152;28;45539;-63
2022/09/20 12:21:27;;;;;;;;;4.00;3.00;;;;;17.88;42.98;101704.72;5015763;28;45434;-63
2022/09/20 12:23:52;;;;;;;;;4.00;4.00;;;;;17.92;42.79;101701.91;5015926;28;45510;-63
2022/09/20 12:26:17;;;;;;;;;6.67;5.00;;;;;17.95;43.05;101702.66;5015764;28;45558;-62